Austinville, Iowa
Current Conditions -  °F | °C
As of 6:35 PM on Friday 24 Oct 2014 (Local Time) from KIFA Reporting Station
Haze Haze  
Wind Chill: 60°   Ceiling: Unl
Heat Index: 60°   Visibility: 3mi
Dew Point: 58°   Wind: 5mph
Humidity: 94%   Direction: 160°SSE
Pressure: 29.92"   Gusts: NA
Location:  42.59°N, 92.96°W
Report Text: KIFA 242335Z AUTO 16004KT 3SM BR CLR 15/14 A2992 RMK AO2 T01530143
Loading
Personal Weather Stations






























Interactive Weather Map
Tropical Storm Tracking
New forecast layout! Learn more

10-Day Weather Forecast

Advertisements
Track Severe Weather on mobile